createdAt,value
2019-03-28T00:00:04.598Z,12
2019-03-28T00:15:04.525Z,12
2019-03-28T00:30:04.047Z,12
2019-03-28T00:45:04.218Z,12
2019-03-28T01:00:04.817Z,11.9
2019-03-28T01:15:05.004Z,11.8
2019-03-28T01:30:04.524Z,11.8
2019-03-28T01:45:04.776Z,11.8
2019-03-28T02:00:05.031Z,11.7
2019-03-28T02:15:04.765Z,11.7
2019-03-28T02:30:04.362Z,11.6
2019-03-28T02:45:04.186Z,11.5
2019-03-28T03:00:04.494Z,11.4
2019-03-28T03:15:04.908Z,11.4
2019-03-28T03:30:04.375Z,11.3
2019-03-28T03:45:04.735Z,11.3
2019-03-28T04:00:04.295Z,11.2
2019-03-28T04:15:04.531Z,11.1
2019-03-28T04:30:04.108Z,11
2019-03-28T04:45:05.536Z,11
2019-03-28T05:00:04.979Z,10.9
2019-03-28T05:15:04.261Z,10.9
2019-03-28T05:30:06.535Z,10.7
2019-03-28T05:45:04.462Z,10.7
2019-03-28T06:00:04.232Z,10.7
2019-03-28T06:15:05.010Z,10.9
2019-03-28T06:30:04.626Z,11.1
2019-03-28T06:45:04.397Z,11
2019-03-28T07:00:04.741Z,11.2
2019-03-28T07:15:04.091Z,11.4
2019-03-28T07:30:04.589Z,11.7
2019-03-28T07:45:04.916Z,12.2
2019-03-28T08:00:05.247Z,12.8
2019-03-28T08:15:04.389Z,13.7
2019-03-28T08:30:17.493Z,14.3
2019-03-28T08:45:05.012Z,15.3
2019-03-28T09:00:04.983Z,16.7
2019-03-28T09:15:04.411Z,18
2019-03-28T09:30:04.897Z,18.4
2019-03-28T09:45:04.131Z,19.5
2019-03-28T10:00:04.520Z,16.9
2019-03-28T10:15:04.736Z,15.5
2019-03-28T10:30:05.017Z,15.1
2019-03-28T10:45:04.462Z,14.9
2019-03-28T11:00:04.754Z,14.6
2019-03-28T11:15:04.531Z,14.7
2019-03-28T11:30:04.475Z,14.8
2019-03-28T11:45:04.219Z,14.7
2019-03-28T12:00:04.983Z,14.8
2019-03-28T12:15:04.261Z,15.1
2019-03-28T12:30:04.265Z,15.1
2019-03-28T12:45:04.525Z,15.1
2019-03-28T13:00:04.841Z,15.1
2019-03-28T13:15:04.630Z,15.1
2019-03-28T13:30:04.139Z,15.3
2019-03-28T13:45:09.099Z,15.5
2019-03-28T14:00:04.435Z,15.6
2019-03-28T14:15:04.229Z,15.6
2019-03-28T14:30:04.645Z,15.6
2019-03-28T14:45:04.471Z,15.7
2019-03-28T15:00:04.232Z,15.8
2019-03-28T15:15:04.558Z,15.7
2019-03-28T15:30:04.579Z,15.8
2019-03-28T15:45:04.884Z,15.8
2019-03-28T16:00:04.849Z,15.8
2019-03-28T16:15:04.192Z,15.9
2019-03-28T16:30:04.155Z,15.9
2019-03-28T16:45:04.473Z,15.9
2019-03-28T17:00:04.228Z,15.8
2019-03-28T17:15:04.472Z,15.9
2019-03-28T17:30:07.019Z,15.9
2019-03-28T17:45:04.934Z,15.8
2019-03-28T18:00:04.783Z,15.9
2019-03-28T18:15:05.016Z,15.8
2019-03-28T18:30:05.567Z,15.8
2019-03-28T18:45:12.752Z,15.8
2019-03-28T19:00:04.485Z,15.8
2019-03-28T19:15:04.266Z,15.7
2019-03-28T19:30:04.763Z,15.6
2019-03-28T19:45:04.524Z,15.5
2019-03-28T20:00:04.224Z,15.4
2019-03-28T20:15:04.932Z,15.3
2019-03-28T20:30:05.007Z,15.3
2019-03-28T20:45:04.728Z,15.3
2019-03-28T21:00:08.084Z,15.2
2019-03-28T21:15:04.832Z,15.1
2019-03-28T21:30:04.872Z,15
2019-03-28T21:45:04.210Z,14.9
2019-03-28T22:00:04.947Z,14.7
2019-03-28T22:15:04.257Z,14.6
2019-03-28T22:30:04.677Z,14.4
2019-03-28T22:45:04.568Z,14.5
2019-03-28T23:00:04.468Z,14.4
2019-03-28T23:15:04.746Z,14.3
2019-03-28T23:30:04.201Z,14.3
2019-03-28T23:45:04.995Z,14.3
